sensor_id;sensor_type;location;lat;lon;timestamp;temperature;humidity
16076;DHT22;8142;48.242;11.644;2023-04-21T00:01:14;8.50;99.90
16076;DHT22;8142;48.242;11.644;2023-04-21T00:03:41;8.50;99.90
16076;DHT22;8142;48.242;11.644;2023-04-21T00:06:07;8.60;99.90
16076;DHT22;8142;48.242;11.644;2023-04-21T00:08:34;8.50;99.90
16076;DHT22;8142;48.242;11.644;2023-04-21T00:11:07;8.50;99.90
16076;DHT22;8142;48.242;11.644;2023-04-21T00:13:34;8.50;99.90
16076;DHT22;8142;48.242;11.644;2023-04-21T00:16:01;8.50;99.90
16076;DHT22;8142;48.242;11.644;2023-04-21T00:18:27;8.50;99.90
16076;DHT22;8142;48.242;11.644;2023-04-21T00:20:53;8.50;99.90
16076;DHT22;8142;48.242;11.644;2023-04-21T00:23:19;8.50;99.90
16076;DHT22;8142;48.242;11.644;2023-04-21T00:25:45;8.50;99.90
16076;DHT22;8142;48.242;11.644;2023-04-21T00:28:11;8.50;99.90
16076;DHT22;8142;48.242;11.644;2023-04-21T00:30:37;8.50;99.90
16076;DHT22;8142;48.242;11.644;2023-04-21T00:33:03;8.50;99.90
16076;DHT22;8142;48.242;11.644;2023-04-21T00:35:28;8.50;99.90
16076;DHT22;8142;48.242;11.644;2023-04-21T00:37:55;8.50;99.90
16076;DHT22;8142;48.242;11.644;2023-04-21T00:40:21;8.60;99.90
16076;DHT22;8142;48.242;11.644;2023-04-21T00:42:47;8.50;99.90
16076;DHT22;8142;48.242;11.644;2023-04-21T00:45:13;8.50;99.90
16076;DHT22;8142;48.242;11.644;2023-04-21T00:47:41;8.50;99.90
16076;DHT22;8142;48.242;11.644;2023-04-21T00:50:09;8.60;99.90
16076;DHT22;8142;48.242;11.644;2023-04-21T00:52:36;8.50;99.90
16076;DHT22;8142;48.242;11.644;2023-04-21T00:55:03;8.60;99.90
16076;DHT22;8142;48.242;11.644;2023-04-21T00:57:30;8.60;99.90
16076;DHT22;8142;48.242;11.644;2023-04-21T00:59:56;8.60;99.90
16076;DHT22;8142;48.242;11.644;2023-04-21T01:02:23;8.50;99.90
16076;DHT22;8142;48.242;11.644;2023-04-21T01:04:48;8.60;99.90
16076;DHT22;8142;48.242;11.644;2023-04-21T01:07:14;8.50;99.90
16076;DHT22;8142;48.242;11.644;2023-04-21T01:09:40;8.60;99.90
16076;DHT22;8142;48.242;11.644;2023-04-21T01:12:08;8.50;99.90
16076;DHT22;8142;48.242;11.644;2023-04-21T01:14:36;8.50;99.90
16076;DHT22;8142;48.242;11.644;2023-04-21T01:17:02;8.50;99.90
16076;DHT22;8142;48.242;11.644;2023-04-21T01:19:38;8.50;99.90
16076;DHT22;8142;48.242;11.644;2023-04-21T01:22:08;8.50;99.90
16076;DHT22;8142;48.242;11.644;2023-04-21T01:24:38;8.50;99.90
16076;DHT22;8142;48.242;11.644;2023-04-21T01:27:11;8.50;99.90
16076;DHT22;8142;48.242;11.644;2023-04-21T01:29:39;8.50;99.90
16076;DHT22;8142;48.242;11.644;2023-04-21T01:32:09;8.50;99.90
16076;DHT22;8142;48.242;11.644;2023-04-21T01:34:35;8.70;99.90
16076;DHT22;8142;48.242;11.644;2023-04-21T01:37:01;8.60;99.90
16076;DHT22;8142;48.242;11.644;2023-04-21T01:39:27;8.50;99.90
16076;DHT22;8142;48.242;11.644;2023-04-21T01:41:53;8.50;99.90
16076;DHT22;8142;48.242;11.644;2023-04-21T01:44:24;8.50;99.90
16076;DHT22;8142;48.242;11.644;2023-04-21T01:46:50;8.50;99.90
16076;DHT22;8142;48.242;11.644;2023-04-21T01:49:16;8.50;99.90
16076;DHT22;8142;48.242;11.644;2023-04-21T01:51:42;8.50;99.90
16076;DHT22;8142;48.242;11.644;2023-04-21T01:54:08;8.50;99.90
16076;DHT22;8142;48.242;11.644;2023-04-21T01:56:34;8.50;99.90
16076;DHT22;8142;48.242;11.644;2023-04-21T01:59:00;8.50;99.90
16076;DHT22;8142;48.242;11.644;2023-04-21T02:01:26;8.40;99.90
16076;DHT22;8142;48.242;11.644;2023-04-21T02:03:52;8.50;99.90
16076;DHT22;8142;48.242;11.644;2023-04-21T02:06:17;8.40;99.90
16076;DHT22;8142;48.242;11.644;2023-04-21T02:08:43;8.40;99.90
16076;DHT22;8142;48.242;11.644;2023-04-21T02:11:09;8.50;99.90
16076;DHT22;8142;48.242;11.644;2023-04-21T02:13:35;8.40;99.90
16076;DHT22;8142;48.242;11.644;2023-04-21T02:16:01;8.40;99.90
16076;DHT22;8142;48.242;11.644;2023-04-21T02:18:27;8.40;99.90
16076;DHT22;8142;48.242;11.644;2023-04-21T02:20:54;8.40;99.90
16076;DHT22;8142;48.242;11.644;2023-04-21T02:23:21;8.40;99.90
16076;DHT22;8142;48.242;11.644;2023-04-21T02:25:47;8.40;99.90
16076;DHT22;8142;48.242;11.644;2023-04-21T02:28:12;8.40;99.90
16076;DHT22;8142;48.242;11.644;2023-04-21T02:30:38;8.40;99.90
16076;DHT22;8142;48.242;11.644;2023-04-21T02:33:04;8.40;99.90
16076;DHT22;8142;48.242;11.644;2023-04-21T02:35:30;8.40;99.90
16076;DHT22;8142;48.242;11.644;2023-04-21T02:37:58;8.40;99.90
16076;DHT22;8142;48.242;11.644;2023-04-21T02:40:24;8.40;99.90
16076;DHT22;8142;48.242;11.644;2023-04-21T02:42:50;8.40;99.90
16076;DHT22;8142;48.242;11.644;2023-04-21T02:45:16;8.40;99.90
16076;DHT22;8142;48.242;11.644;2023-04-21T02:47:41;8.40;99.90
16076;DHT22;8142;48.242;11.644;2023-04-21T02:50:08;8.40;99.90
16076;DHT22;8142;48.242;11.644;2023-04-21T02:52:37;8.40;99.90
16076;DHT22;8142;48.242;11.644;2023-04-21T02:55:03;8.40;99.90
16076;DHT22;8142;48.242;11.644;2023-04-21T02:57:29;8.40;99.90
16076;DHT22;8142;48.242;11.644;2023-04-21T02:59:54;8.40;99.90
16076;DHT22;8142;48.242;11.644;2023-04-21T03:02:20;8.40;99.90
16076;DHT22;8142;48.242;11.644;2023-04-21T03:04:46;8.30;99.90
16076;DHT22;8142;48.242;11.644;2023-04-21T03:07:12;8.20;99.90
16076;DHT22;8142;48.242;11.644;2023-04-21T03:09:39;8.10;99.90
16076;DHT22;8142;48.242;11.644;2023-04-21T03:12:05;8.00;99.90
16076;DHT22;8142;48.242;11.644;2023-04-21T03:14:31;7.90;99.90
16076;DHT22;8142;48.242;11.644;2023-04-21T03:16:57;7.70;99.90
16076;DHT22;8142;48.242;11.644;2023-04-21T03:19:22;7.60;99.90
16076;DHT22;8142;48.242;11.644;2023-04-21T03:21:48;7.50;99.90
16076;DHT22;8142;48.242;11.644;2023-04-21T03:24:14;7.30;99.90
16076;DHT22;8142;48.242;11.644;2023-04-21T03:26:40;7.20;99.90
16076;DHT22;8142;48.242;11.644;2023-04-21T03:29:06;7.00;99.90
16076;DHT22;8142;48.242;11.644;2023-04-21T03:31:32;6.80;99.90
16076;DHT22;8142;48.242;11.644;2023-04-21T03:33:58;6.70;99.90
16076;DHT22;8142;48.242;11.644;2023-04-21T03:36:24;6.50;99.90
16076;DHT22;8142;48.242;11.644;2023-04-21T03:38:49;6.40;99.90
16076;DHT22;8142;48.242;11.644;2023-04-21T03:41:15;6.30;99.90
16076;DHT22;8142;48.242;11.644;2023-04-21T03:43:41;6.20;99.90
16076;DHT22;8142;48.242;11.644;2023-04-21T03:46:07;6.20;99.90
16076;DHT22;8142;48.242;11.644;2023-04-21T03:48:41;6.10;99.90
16076;DHT22;8142;48.242;11.644;2023-04-21T03:51:07;6.00;99.90
16076;DHT22;8142;48.242;11.644;2023-04-21T03:53:32;6.00;99.90
16076;DHT22;8142;48.242;11.644;2023-04-21T03:55:58;6.10;99.90
16076;DHT22;8142;48.242;11.644;2023-04-21T03:58:24;6.10;99.90
16076;DHT22;8142;48.242;11.644;2023-04-21T04:00:50;6.20;99.90
16076;DHT22;8142;48.242;11.644;2023-04-21T04:03:16;6.20;99.90
16076;DHT22;8142;48.242;11.644;2023-04-21T04:05:42;6.20;99.90
16076;DHT22;8142;48.242;11.644;2023-04-21T04:08:08;6.30;99.90
16076;DHT22;8142;48.242;11.644;2023-04-21T04:10:33;6.30;99.90
16076;DHT22;8142;48.242;11.644;2023-04-21T04:12:59;6.30;99.90
16076;DHT22;8142;48.242;11.644;2023-04-21T04:15:26;6.30;99.90
16076;DHT22;8142;48.242;11.644;2023-04-21T04:17:52;6.30;99.90
16076;DHT22;8142;48.242;11.644;2023-04-21T04:20:18;6.40;99.90
16076;DHT22;8142;48.242;11.644;2023-04-21T04:22:44;6.40;99.90
16076;DHT22;8142;48.242;11.644;2023-04-21T04:25:09;6.40;99.90
16076;DHT22;8142;48.242;11.644;2023-04-21T04:27:37;6.50;99.90
16076;DHT22;8142;48.242;11.644;2023-04-21T04:30:04;6.50;99.90
16076;DHT22;8142;48.242;11.644;2023-04-21T04:32:31;6.60;99.90
16076;DHT22;8142;48.242;11.644;2023-04-21T04:34:58;6.60;99.90
16076;DHT22;8142;48.242;11.644;2023-04-21T04:37:24;6.70;99.90
16076;DHT22;8142;48.242;11.644;2023-04-21T04:39:53;6.90;99.90
16076;DHT22;8142;48.242;11.644;2023-04-21T04:42:19;6.90;99.90
16076;DHT22;8142;48.242;11.644;2023-04-21T04:44:45;7.00;99.90
16076;DHT22;8142;48.242;11.644;2023-04-21T04:47:12;7.10;99.90
16076;DHT22;8142;48.242;11.644;2023-04-21T04:49:37;7.20;99.90
16076;DHT22;8142;48.242;11.644;2023-04-21T04:52:03;7.30;99.90
16076;DHT22;8142;48.242;11.644;2023-04-21T04:54:29;7.30;99.90
16076;DHT22;8142;48.242;11.644;2023-04-21T04:56:55;7.40;99.90
16076;DHT22;8142;48.242;11.644;2023-04-21T04:59:22;7.50;99.90
16076;DHT22;8142;48.242;11.644;2023-04-21T05:01:48;7.50;99.90
16076;DHT22;8142;48.242;11.644;2023-04-21T05:04:13;7.60;99.90
16076;DHT22;8142;48.242;11.644;2023-04-21T05:06:41;7.70;99.90
16076;DHT22;8142;48.242;11.644;2023-04-21T05:09:07;7.70;99.90
16076;DHT22;8142;48.242;11.644;2023-04-21T05:11:34;7.70;99.90
16076;DHT22;8142;48.242;11.644;2023-04-21T05:14:00;7.80;99.90
16076;DHT22;8142;48.242;11.644;2023-04-21T05:16:26;7.80;99.90
16076;DHT22;8142;48.242;11.644;2023-04-21T05:18:52;7.90;99.90
16076;DHT22;8142;48.242;11.644;2023-04-21T05:21:25;7.90;99.90
16076;DHT22;8142;48.242;11.644;2023-04-21T05:23:55;7.90;99.90
16076;DHT22;8142;48.242;11.644;2023-04-21T05:26:21;8.00;99.90
16076;DHT22;8142;48.242;11.644;2023-04-21T05:28:48;8.00;99.90
16076;DHT22;8142;48.242;11.644;2023-04-21T05:31:13;8.00;99.90
16076;DHT22;8142;48.242;11.644;2023-04-21T05:33:39;8.00;99.90
16076;DHT22;8142;48.242;11.644;2023-04-21T05:36:09;8.00;99.90
16076;DHT22;8142;48.242;11.644;2023-04-21T05:38:36;8.10;99.90
16076;DHT22;8142;48.242;11.644;2023-04-21T05:41:02;8.10;99.90
16076;DHT22;8142;48.242;11.644;2023-04-21T05:43:29;8.10;99.90
16076;DHT22;8142;48.242;11.644;2023-04-21T05:46:01;8.10;99.90
16076;DHT22;8142;48.242;11.644;2023-04-21T05:48:27;8.20;99.90
16076;DHT22;8142;48.242;11.644;2023-04-21T05:50:54;8.20;99.90
16076;DHT22;8142;48.242;11.644;2023-04-21T05:53:20;8.20;99.90
16076;DHT22;8142;48.242;11.644;2023-04-21T05:55:48;8.20;99.90
16076;DHT22;8142;48.242;11.644;2023-04-21T05:58:14;8.20;99.90
16076;DHT22;8142;48.242;11.644;2023-04-21T06:00:40;8.20;99.90
16076;DHT22;8142;48.242;11.644;2023-04-21T06:03:06;8.20;99.90
16076;DHT22;8142;48.242;11.644;2023-04-21T06:05:32;8.30;99.90
16076;DHT22;8142;48.242;11.644;2023-04-21T06:07:58;8.30;99.90
16076;DHT22;8142;48.242;11.644;2023-04-21T06:10:24;8.30;99.90
16076;DHT22;8142;48.242;11.644;2023-04-21T06:12:50;8.30;99.90
16076;DHT22;8142;48.242;11.644;2023-04-21T06:15:16;8.40;99.90
16076;DHT22;8142;48.242;11.644;2023-04-21T06:17:42;8.50;99.90
16076;DHT22;8142;48.242;11.644;2023-04-21T06:20:08;8.50;99.90
16076;DHT22;8142;48.242;11.644;2023-04-21T06:22:34;8.60;99.90
16076;DHT22;8142;48.242;11.644;2023-04-21T06:25:00;8.70;99.90
16076;DHT22;8142;48.242;11.644;2023-04-21T06:27:26;8.90;99.90
16076;DHT22;8142;48.242;11.644;2023-04-21T06:29:55;9.10;99.90
16076;DHT22;8142;48.242;11.644;2023-04-21T06:32:21;9.20;99.90
16076;DHT22;8142;48.242;11.644;2023-04-21T06:34:47;9.40;99.90
16076;DHT22;8142;48.242;11.644;2023-04-21T06:37:12;9.60;99.90
16076;DHT22;8142;48.242;11.644;2023-04-21T06:39:38;9.90;99.90
16076;DHT22;8142;48.242;11.644;2023-04-21T06:42:05;10.10;99.90
16076;DHT22;8142;48.242;11.644;2023-04-21T06:44:30;10.30;99.90
16076;DHT22;8142;48.242;11.644;2023-04-21T06:46:57;10.60;99.90
16076;DHT22;8142;48.242;11.644;2023-04-21T06:49:22;10.70;99.90
16076;DHT22;8142;48.242;11.644;2023-04-21T06:51:48;10.80;99.90
16076;DHT22;8142;48.242;11.644;2023-04-21T06:54:14;10.80;99.90
16076;DHT22;8142;48.242;11.644;2023-04-21T06:56:40;10.80;99.90
16076;DHT22;8142;48.242;11.644;2023-04-21T06:59:08;10.80;99.90
16076;DHT22;8142;48.242;11.644;2023-04-21T07:01:34;10.80;99.90
16076;DHT22;8142;48.242;11.644;2023-04-21T07:04:00;10.80;99.90
16076;DHT22;8142;48.242;11.644;2023-04-21T07:06:26;10.90;99.90
16076;DHT22;8142;48.242;11.644;2023-04-21T07:08:52;11.10;99.90
16076;DHT22;8142;48.242;11.644;2023-04-21T07:11:18;11.30;99.90
16076;DHT22;8142;48.242;11.644;2023-04-21T07:13:44;11.40;99.90
16076;DHT22;8142;48.242;11.644;2023-04-21T07:16:10;11.60;99.90
16076;DHT22;8142;48.242;11.644;2023-04-21T07:18:37;11.80;99.90
16076;DHT22;8142;48.242;11.644;2023-04-21T07:21:03;12.00;99.90
16076;DHT22;8142;48.242;11.644;2023-04-21T07:23:29;12.20;99.90
16076;DHT22;8142;48.242;11.644;2023-04-21T07:25:55;12.30;99.90
16076;DHT22;8142;48.242;11.644;2023-04-21T07:28:21;12.50;99.90
16076;DHT22;8142;48.242;11.644;2023-04-21T07:30:47;12.60;99.90
16076;DHT22;8142;48.242;11.644;2023-04-21T07:33:13;12.80;99.90
16076;DHT22;8142;48.242;11.644;2023-04-21T07:35:38;13.00;99.90
16076;DHT22;8142;48.242;11.644;2023-04-21T07:38:04;13.10;99.90
16076;DHT22;8142;48.242;11.644;2023-04-21T07:40:30;13.20;99.90
16076;DHT22;8142;48.242;11.644;2023-04-21T07:42:56;13.20;99.90
16076;DHT22;8142;48.242;11.644;2023-04-21T07:45:22;13.20;99.90
16076;DHT22;8142;48.242;11.644;2023-04-21T07:47:49;13.20;99.90
16076;DHT22;8142;48.242;11.644;2023-04-21T07:50:14;13.10;99.90
16076;DHT22;8142;48.242;11.644;2023-04-21T07:52:40;13.20;99.90
16076;DHT22;8142;48.242;11.644;2023-04-21T07:55:06;13.10;99.90
16076;DHT22;8142;48.242;11.644;2023-04-21T07:57:32;13.10;99.90
16076;DHT22;8142;48.242;11.644;2023-04-21T08:00:04;13.10;99.90
16076;DHT22;8142;48.242;11.644;2023-04-21T08:02:30;12.90;99.90
16076;DHT22;8142;48.242;11.644;2023-04-21T08:04:56;12.90;99.90
16076;DHT22;8142;48.242;11.644;2023-04-21T08:07:22;12.80;99.90
16076;DHT22;8142;48.242;11.644;2023-04-21T08:09:48;12.80;99.90
16076;DHT22;8142;48.242;11.644;2023-04-21T08:12:14;12.80;99.90
16076;DHT22;8142;48.242;11.644;2023-04-21T08:14:40;12.80;99.90
16076;DHT22;8142;48.242;11.644;2023-04-21T08:17:06;12.90;99.90
16076;DHT22;8142;48.242;11.644;2023-04-21T08:19:32;13.10;99.90
16076;DHT22;8142;48.242;11.644;2023-04-21T08:21:57;13.20;99.90
16076;DHT22;8142;48.242;11.644;2023-04-21T08:24:23;13.30;99.90
16076;DHT22;8142;48.242;11.644;2023-04-21T08:26:49;13.40;99.90
16076;DHT22;8142;48.242;11.644;2023-04-21T08:29:15;13.50;99.90
16076;DHT22;8142;48.242;11.644;2023-04-21T08:31:41;13.60;99.90
16076;DHT22;8142;48.242;11.644;2023-04-21T08:34:07;13.80;99.90
16076;DHT22;8142;48.242;11.644;2023-04-21T08:36:33;13.90;99.90
16076;DHT22;8142;48.242;11.644;2023-04-21T08:38:59;14.00;99.90
16076;DHT22;8142;48.242;11.644;2023-04-21T08:41:26;14.00;99.90
16076;DHT22;8142;48.242;11.644;2023-04-21T08:43:52;13.90;99.90
16076;DHT22;8142;48.242;11.644;2023-04-21T08:46:18;13.70;99.90
16076;DHT22;8142;48.242;11.644;2023-04-21T08:48:45;13.50;99.90
16076;DHT22;8142;48.242;11.644;2023-04-21T08:51:17;13.40;99.90
16076;DHT22;8142;48.242;11.644;2023-04-21T08:53:45;13.30;99.90
16076;DHT22;8142;48.242;11.644;2023-04-21T08:56:11;13.20;99.90
16076;DHT22;8142;48.242;11.644;2023-04-21T08:58:37;13.10;99.90
16076;DHT22;8142;48.242;11.644;2023-04-21T09:01:03;13.00;99.90
16076;DHT22;8142;48.242;11.644;2023-04-21T09:03:29;12.90;99.90
16076;DHT22;8142;48.242;11.644;2023-04-21T09:06:03;12.80;99.90
16076;DHT22;8142;48.242;11.644;2023-04-21T09:08:30;12.80;99.90
16076;DHT22;8142;48.242;11.644;2023-04-21T09:10:58;12.70;99.90
16076;DHT22;8142;48.242;11.644;2023-04-21T09:13:35;12.60;99.90
16076;DHT22;8142;48.242;11.644;2023-04-21T09:16:04;12.60;99.90
16076;DHT22;8142;48.242;11.644;2023-04-21T09:18:31;12.50;99.90
16076;DHT22;8142;48.242;11.644;2023-04-21T09:21:15;12.50;99.90
16076;DHT22;8142;48.242;11.644;2023-04-21T09:26:12;12.30;99.90
16076;DHT22;8142;48.242;11.644;2023-04-21T09:28:46;12.40;99.90
16076;DHT22;8142;48.242;11.644;2023-04-21T09:33:44;12.30;99.90
16076;DHT22;8142;48.242;11.644;2023-04-21T09:36:17;12.30;99.90
16076;DHT22;8142;48.242;11.644;2023-04-21T09:38:54;12.30;99.90
16076;DHT22;8142;48.242;11.644;2023-04-21T09:41:20;12.20;99.90
16076;DHT22;8142;48.242;11.644;2023-04-21T09:43:47;12.30;99.90
16076;DHT22;8142;48.242;11.644;2023-04-21T09:46:15;12.30;99.90
16076;DHT22;8142;48.242;11.644;2023-04-21T09:48:46;12.30;99.90
16076;DHT22;8142;48.242;11.644;2023-04-21T09:51:14;12.30;99.90
16076;DHT22;8142;48.242;11.644;2023-04-21T09:53:41;12.30;99.90
16076;DHT22;8142;48.242;11.644;2023-04-21T09:56:11;12.40;99.90
16076;DHT22;8142;48.242;11.644;2023-04-21T09:58:52;12.30;99.90
16076;DHT22;8142;48.242;11.644;2023-04-21T10:01:18;12.30;99.90
16076;DHT22;8142;48.242;11.644;2023-04-21T10:03:47;12.40;99.90
16076;DHT22;8142;48.242;11.644;2023-04-21T10:06:13;12.20;99.90
16076;DHT22;8142;48.242;11.644;2023-04-21T10:08:40;12.40;99.90
16076;DHT22;8142;48.242;11.644;2023-04-21T10:11:07;12.40;99.90
16076;DHT22;8142;48.242;11.644;2023-04-21T10:13:34;12.40;99.90
16076;DHT22;8142;48.242;11.644;2023-04-21T10:16:05;12.40;99.90
16076;DHT22;8142;48.242;11.644;2023-04-21T10:18:36;12.40;99.90
16076;DHT22;8142;48.242;11.644;2023-04-21T10:21:06;12.50;99.90
16076;DHT22;8142;48.242;11.644;2023-04-21T10:23:43;12.50;99.90
16076;DHT22;8142;48.242;11.644;2023-04-21T10:26:18;12.50;99.90
16076;DHT22;8142;48.242;11.644;2023-04-21T10:31:51;12.50;99.90
16076;DHT22;8142;48.242;11.644;2023-04-21T10:34:19;12.50;99.90
16076;DHT22;8142;48.242;11.644;2023-04-21T10:39:53;12.60;99.90
16076;DHT22;8142;48.242;11.644;2023-04-21T10:42:27;12.60;99.90
16076;DHT22;8142;48.242;11.644;2023-04-21T10:49:58;12.70;99.90
16076;DHT22;8142;48.242;11.644;2023-04-21T10:52:33;12.70;99.90
16076;DHT22;8142;48.242;11.644;2023-04-21T10:57:31;12.80;99.90
16076;DHT22;8142;48.242;11.644;2023-04-21T10:59:58;12.90;99.90
16076;DHT22;8142;48.242;11.644;2023-04-21T11:02:25;12.90;99.90
16076;DHT22;8142;48.242;11.644;2023-04-21T11:04:53;13.00;99.90
16076;DHT22;8142;48.242;11.644;2023-04-21T11:07:21;13.00;99.90
16076;DHT22;8142;48.242;11.644;2023-04-21T11:09:49;13.10;99.90
16076;DHT22;8142;48.242;11.644;2023-04-21T11:12:20;13.10;99.90
16076;DHT22;8142;48.242;11.644;2023-04-21T11:14:47;13.20;99.90
16076;DHT22;8142;48.242;11.644;2023-04-21T11:17:14;13.30;99.90
16076;DHT22;8142;48.242;11.644;2023-04-21T11:19:44;13.20;99.90
16076;DHT22;8142;48.242;11.644;2023-04-21T11:22:10;13.30;99.90
16076;DHT22;8142;48.242;11.644;2023-04-21T11:24:36;13.30;99.90
16076;DHT22;8142;48.242;11.644;2023-04-21T11:27:02;13.30;99.90
16076;DHT22;8142;48.242;11.644;2023-04-21T11:29:28;13.30;99.90
16076;DHT22;8142;48.242;11.644;2023-04-21T11:31:55;13.40;99.90
16076;DHT22;8142;48.242;11.644;2023-04-21T11:34:21;13.40;99.90
16076;DHT22;8142;48.242;11.644;2023-04-21T11:36:47;13.40;99.90
16076;DHT22;8142;48.242;11.644;2023-04-21T11:39:15;13.40;99.90
16076;DHT22;8142;48.242;11.644;2023-04-21T11:41:44;13.40;99.90
16076;DHT22;8142;48.242;11.644;2023-04-21T11:44:11;13.40;99.90
16076;DHT22;8142;48.242;11.644;2023-04-21T11:46:44;13.50;99.90
16076;DHT22;8142;48.242;11.644;2023-04-21T11:49:12;13.40;99.90
16076;DHT22;8142;48.242;11.644;2023-04-21T11:51:39;13.50;99.90
16076;DHT22;8142;48.242;11.644;2023-04-21T11:54:07;13.50;99.90
16076;DHT22;8142;48.242;11.644;2023-04-21T11:56:37;13.50;99.90
16076;DHT22;8142;48.242;11.644;2023-04-21T11:59:08;13.60;99.90
16076;DHT22;8142;48.242;11.644;2023-04-21T12:01:34;13.60;99.90
16076;DHT22;8142;48.242;11.644;2023-04-21T12:04:13;13.60;99.90
16076;DHT22;8142;48.242;11.644;2023-04-21T12:06:39;13.60;99.90
16076;DHT22;8142;48.242;11.644;2023-04-21T12:09:05;13.60;99.90
16076;DHT22;8142;48.242;11.644;2023-04-21T12:11:31;13.80;99.90
16076;DHT22;8142;48.242;11.644;2023-04-21T12:13:57;13.70;99.90
16076;DHT22;8142;48.242;11.644;2023-04-21T12:16:25;13.80;99.90
16076;DHT22;8142;48.242;11.644;2023-04-21T12:18:56;13.80;99.90
16076;DHT22;8142;48.242;11.644;2023-04-21T12:21:28;13.80;99.90
16076;DHT22;8142;48.242;11.644;2023-04-21T12:23:55;13.90;99.90
16076;DHT22;8142;48.242;11.644;2023-04-21T12:26:21;13.90;99.90
16076;DHT22;8142;48.242;11.644;2023-04-21T12:28:50;14.00;99.90
16076;DHT22;8142;48.242;11.644;2023-04-21T12:31:17;14.00;99.90
16076;DHT22;8142;48.242;11.644;2023-04-21T12:33:43;13.90;99.90
16076;DHT22;8142;48.242;11.644;2023-04-21T12:36:09;13.90;99.90
16076;DHT22;8142;48.242;11.644;2023-04-21T12:38:35;14.00;99.90
16076;DHT22;8142;48.242;11.644;2023-04-21T12:41:01;14.00;99.90
16076;DHT22;8142;48.242;11.644;2023-04-21T12:43:27;14.10;99.90
16076;DHT22;8142;48.242;11.644;2023-04-21T12:45:52;14.10;99.90
16076;DHT22;8142;48.242;11.644;2023-04-21T12:48:19;14.20;99.90
16076;DHT22;8142;48.242;11.644;2023-04-21T12:50:45;14.20;99.90
16076;DHT22;8142;48.242;11.644;2023-04-21T12:53:14;14.10;99.90
16076;DHT22;8142;48.242;11.644;2023-04-21T12:55:39;14.20;99.90
16076;DHT22;8142;48.242;11.644;2023-04-21T12:58:06;14.30;99.90
16076;DHT22;8142;48.242;11.644;2023-04-21T13:00:32;14.20;99.90
16076;DHT22;8142;48.242;11.644;2023-04-21T13:03:00;14.30;99.90
16076;DHT22;8142;48.242;11.644;2023-04-21T13:05:26;14.30;99.90
16076;DHT22;8142;48.242;11.644;2023-04-21T13:07:52;14.20;99.90
16076;DHT22;8142;48.242;11.644;2023-04-21T13:10:18;14.30;99.90
16076;DHT22;8142;48.242;11.644;2023-04-21T13:12:45;14.30;99.90
16076;DHT22;8142;48.242;11.644;2023-04-21T13:15:11;14.30;99.90
16076;DHT22;8142;48.242;11.644;2023-04-21T13:17:37;14.30;99.90
16076;DHT22;8142;48.242;11.644;2023-04-21T13:20:03;14.40;99.90
16076;DHT22;8142;48.242;11.644;2023-04-21T13:22:29;14.40;99.90
16076;DHT22;8142;48.242;11.644;2023-04-21T13:24:55;14.50;99.90
16076;DHT22;8142;48.242;11.644;2023-04-21T13:27:21;14.50;99.90
16076;DHT22;8142;48.242;11.644;2023-04-21T13:29:46;14.60;99.90
16076;DHT22;8142;48.242;11.644;2023-04-21T13:32:13;14.60;99.90
16076;DHT22;8142;48.242;11.644;2023-04-21T13:34:40;14.60;99.90
16076;DHT22;8142;48.242;11.644;2023-04-21T13:37:05;14.70;99.90
16076;DHT22;8142;48.242;11.644;2023-04-21T13:39:35;14.80;99.90
16076;DHT22;8142;48.242;11.644;2023-04-21T13:42:01;14.80;99.90
16076;DHT22;8142;48.242;11.644;2023-04-21T13:44:27;14.90;99.90
16076;DHT22;8142;48.242;11.644;2023-04-21T13:46:53;15.00;99.90
16076;DHT22;8142;48.242;11.644;2023-04-21T13:49:19;15.00;99.90
16076;DHT22;8142;48.242;11.644;2023-04-21T13:51:45;15.00;99.90
16076;DHT22;8142;48.242;11.644;2023-04-21T13:54:11;15.00;99.90
16076;DHT22;8142;48.242;11.644;2023-04-21T13:56:37;15.00;99.90
16076;DHT22;8142;48.242;11.644;2023-04-21T13:59:03;15.10;99.90
16076;DHT22;8142;48.242;11.644;2023-04-21T14:01:30;15.00;99.90
16076;DHT22;8142;48.242;11.644;2023-04-21T14:03:56;15.10;99.90
16076;DHT22;8142;48.242;11.644;2023-04-21T14:06:22;15.20;99.90
16076;DHT22;8142;48.242;11.644;2023-04-21T14:08:48;15.20;99.90
16076;DHT22;8142;48.242;11.644;2023-04-21T14:11:14;15.20;99.90
16076;DHT22;8142;48.242;11.644;2023-04-21T14:13:40;15.30;99.90
16076;DHT22;8142;48.242;11.644;2023-04-21T14:16:06;15.30;99.90
16076;DHT22;8142;48.242;11.644;2023-04-21T14:18:32;15.40;99.90
16076;DHT22;8142;48.242;11.644;2023-04-21T14:20:58;15.40;99.90
16076;DHT22;8142;48.242;11.644;2023-04-21T14:23:24;15.40;99.90
16076;DHT22;8142;48.242;11.644;2023-04-21T14:25:50;15.40;99.90
16076;DHT22;8142;48.242;11.644;2023-04-21T14:28:16;15.50;99.90
16076;DHT22;8142;48.242;11.644;2023-04-21T14:30:41;15.50;99.90
16076;DHT22;8142;48.242;11.644;2023-04-21T14:33:07;15.60;99.90
16076;DHT22;8142;48.242;11.644;2023-04-21T14:35:35;15.60;99.90
16076;DHT22;8142;48.242;11.644;2023-04-21T14:38:01;15.60;99.90
16076;DHT22;8142;48.242;11.644;2023-04-21T14:40:27;15.60;99.90
16076;DHT22;8142;48.242;11.644;2023-04-21T14:42:53;15.60;99.90
16076;DHT22;8142;48.242;11.644;2023-04-21T14:45:19;15.70;99.90
16076;DHT22;8142;48.242;11.644;2023-04-21T14:47:45;15.70;99.90
16076;DHT22;8142;48.242;11.644;2023-04-21T14:50:11;15.70;99.90
16076;DHT22;8142;48.242;11.644;2023-04-21T14:52:37;15.80;99.90
16076;DHT22;8142;48.242;11.644;2023-04-21T14:55:03;15.70;99.90
16076;DHT22;8142;48.242;11.644;2023-04-21T14:57:29;15.80;99.90
16076;DHT22;8142;48.242;11.644;2023-04-21T14:59:55;15.80;99.90
16076;DHT22;8142;48.242;11.644;2023-04-21T15:02:21;15.80;99.90
16076;DHT22;8142;48.242;11.644;2023-04-21T15:04:47;15.80;99.90
16076;DHT22;8142;48.242;11.644;2023-04-21T15:07:13;15.80;99.90
16076;DHT22;8142;48.242;11.644;2023-04-21T15:09:40;15.80;99.90
16076;DHT22;8142;48.242;11.644;2023-04-21T15:12:11;15.90;99.90
16076;DHT22;8142;48.242;11.644;2023-04-21T15:14:40;15.90;99.90
16076;DHT22;8142;48.242;11.644;2023-04-21T15:17:06;15.90;99.90
16076;DHT22;8142;48.242;11.644;2023-04-21T15:19:32;15.90;99.90
16076;DHT22;8142;48.242;11.644;2023-04-21T15:21:57;15.90;99.90
16076;DHT22;8142;48.242;11.644;2023-04-21T15:24:23;16.00;99.90
16076;DHT22;8142;48.242;11.644;2023-04-21T15:26:49;16.00;99.90
16076;DHT22;8142;48.242;11.644;2023-04-21T15:29:15;15.90;99.90
16076;DHT22;8142;48.242;11.644;2023-04-21T15:31:41;16.00;99.90
16076;DHT22;8142;48.242;11.644;2023-04-21T15:34:07;15.90;99.90
16076;DHT22;8142;48.242;11.644;2023-04-21T15:36:33;16.00;99.90
16076;DHT22;8142;48.242;11.644;2023-04-21T15:38:59;15.90;99.90
16076;DHT22;8142;48.242;11.644;2023-04-21T15:41:25;16.00;99.90
16076;DHT22;8142;48.242;11.644;2023-04-21T15:43:53;15.80;99.90
16076;DHT22;8142;48.242;11.644;2023-04-21T15:46:19;15.90;99.90
16076;DHT22;8142;48.242;11.644;2023-04-21T15:48:45;15.90;99.90
16076;DHT22;8142;48.242;11.644;2023-04-21T15:51:12;15.90;99.90
16076;DHT22;8142;48.242;11.644;2023-04-21T15:53:37;15.90;99.90